createdAt,value
2022-10-21T00:01:25.022Z,17.47
2022-10-21T00:04:02.704Z,17.51
2022-10-21T00:06:36.056Z,17.52
2022-10-21T00:09:09.089Z,17.53
2022-10-21T00:11:41.665Z,17.50
2022-10-21T00:14:14.404Z,17.48
2022-10-21T00:16:47.182Z,17.44
2022-10-21T00:19:21.266Z,17.45
2022-10-21T00:21:54.139Z,17.47
2022-10-21T00:24:26.863Z,17.47
2022-10-21T00:27:00.332Z,17.46
2022-10-21T00:29:33.125Z,17.41
2022-10-21T00:32:06.202Z,17.44
2022-10-21T00:34:43.091Z,17.41
2022-10-21T00:37:17.473Z,17.40
2022-10-21T00:39:50.153Z,17.37
2022-10-21T00:42:24.071Z,17.39
2022-10-21T00:45:18.190Z,17.37
2022-10-21T00:47:55.021Z,17.31
2022-10-21T00:50:36.398Z,17.29
2022-10-21T00:53:15.095Z,17.29
2022-10-21T00:55:52.586Z,17.29
2022-10-21T00:58:29.123Z,17.30
2022-10-21T01:01:06.223Z,17.22
2022-10-21T01:03:38.939Z,17.27
2022-10-21T01:06:14.779Z,17.19
2022-10-21T01:08:47.545Z,17.23
2022-10-21T01:11:22.364Z,17.21
2022-10-21T01:14:14.167Z,17.18
2022-10-21T01:16:57.093Z,17.19
2022-10-21T01:19:57.197Z,17.20
2022-10-21T01:22:47.370Z,17.19
2022-10-21T01:25:45.976Z,17.15
2022-10-21T01:28:27.395Z,17.16
2022-10-21T01:31:10.380Z,17.14
2022-10-21T01:33:46.467Z,17.13
2022-10-21T01:36:29.858Z,17.12
2022-10-21T01:39:19.653Z,17.13
2022-10-21T01:41:59.898Z,17.09
2022-10-21T01:44:38.467Z,17.08
2022-10-21T01:47:18.912Z,17.02
2022-10-21T01:49:54.716Z,17.02
2022-10-21T01:52:27.810Z,17.05
2022-10-21T01:55:05.211Z,16.91
2022-10-21T01:57:43.114Z,16.81
2022-10-21T02:00:18.462Z,16.74
2022-10-21T02:02:53.208Z,16.67
2022-10-21T02:05:30.413Z,16.65
2022-10-21T02:08:03.399Z,16.67
2022-10-21T02:10:41.019Z,16.66
2022-10-21T02:13:18.580Z,16.65
2022-10-21T02:15:51.948Z,16.56
2022-10-21T02:18:27.524Z,16.56
2022-10-21T02:21:06.090Z,16.47
2022-10-21T02:23:43.448Z,16.42
2022-10-21T02:26:16.396Z,16.43
2022-10-21T02:28:51.066Z,16.43
2022-10-21T02:31:47.090Z,16.36
2022-10-21T02:34:31.187Z,16.33
2022-10-21T02:37:11.525Z,16.32
2022-10-21T02:39:51.057Z,16.28
2022-10-21T02:42:28.331Z,16.22
2022-10-21T02:45:02.394Z,16.20
2022-10-21T02:47:37.641Z,16.15
2022-10-21T02:50:12.945Z,16.15
2022-10-21T02:52:46.191Z,16.17
2022-10-21T02:55:19.057Z,16.20
2022-10-21T02:57:51.778Z,16.15
2022-10-21T03:00:25.518Z,16.15
2022-10-21T03:02:58.298Z,16.17
2022-10-21T03:08:10.232Z,16.13
2022-10-21T03:10:43.253Z,16.12
2022-10-21T03:13:16.115Z,16.12
2022-10-21T03:15:49.771Z,16.12
2022-10-21T03:18:22.504Z,16.10
2022-10-21T03:20:56.630Z,16.13
2022-10-21T03:23:29.374Z,16.14
2022-10-21T03:26:02.132Z,16.11
2022-10-21T03:28:34.839Z,16.14
2022-10-21T03:31:07.797Z,16.15
2022-10-21T03:33:40.577Z,16.10
2022-10-21T03:36:15.081Z,16.11
2022-10-21T03:38:47.760Z,16.07
2022-10-21T03:41:20.557Z,16.11
2022-10-21T03:43:53.371Z,16.12
2022-10-21T03:46:26.244Z,16.12
2022-10-21T03:49:02.779Z,16.10
2022-10-21T03:51:39.750Z,16.04
2022-10-21T03:54:12.476Z,16.09
2022-10-21T03:56:45.302Z,16.04
2022-10-21T03:59:18.079Z,16.06
2022-10-21T04:01:51.076Z,16.03
2022-10-21T04:04:23.606Z,16.04
2022-10-21T04:06:57.614Z,16.02
2022-10-21T04:09:30.294Z,16.01
2022-10-21T04:12:03.480Z,16.10
2022-10-21T04:14:36.479Z,16.02
2022-10-21T04:17:09.061Z,16.02
2022-10-21T04:19:41.953Z,16.01
2022-10-21T04:22:16.139Z,15.97
2022-10-21T04:24:48.820Z,16.05
2022-10-21T04:27:21.562Z,16.12
2022-10-21T04:29:54.263Z,16.12
2022-10-21T04:32:26.998Z,16.05
2022-10-21T04:34:59.704Z,16.04
2022-10-21T04:37:34.287Z,16.06
2022-10-21T04:40:08.909Z,16.08
2022-10-21T04:42:41.594Z,16.07
2022-10-21T04:45:14.267Z,16.10
2022-10-21T04:47:47.146Z,16.07
2022-10-21T04:50:19.855Z,16.07
2022-10-21T04:52:53.897Z,16.09
2022-10-21T04:55:26.610Z,16.05
2022-10-21T04:57:59.422Z,16.00
2022-10-21T05:00:32.260Z,16.04
2022-10-21T05:03:05.076Z,15.98
2022-10-21T05:05:37.771Z,16.02
2022-10-21T05:08:11.951Z,16.00
2022-10-21T05:10:44.696Z,16.06
2022-10-21T05:13:17.505Z,16.06
2022-10-21T05:15:50.182Z,15.94
2022-10-21T05:18:22.956Z,16.05
2022-10-21T05:20:57.375Z,15.96
2022-10-21T05:23:31.884Z,15.92
2022-10-21T05:26:04.670Z,15.90
2022-10-21T05:28:37.887Z,16.00
2022-10-21T05:31:10.868Z,15.94
2022-10-21T05:33:43.731Z,16.00
2022-10-21T05:36:18.478Z,15.90
2022-10-21T05:38:55.674Z,15.87
2022-10-21T05:41:28.520Z,15.94
2022-10-21T05:44:01.499Z,15.87
2022-10-21T05:46:34.253Z,15.90
2022-10-21T05:49:07.657Z,15.88
2022-10-21T05:51:40.434Z,15.93
2022-10-21T05:54:14.706Z,15.98
2022-10-21T05:56:48.220Z,15.98
2022-10-21T05:59:21.035Z,16.01
2022-10-21T06:01:53.839Z,16.03
2022-10-21T06:04:26.922Z,16.03
2022-10-21T06:06:59.869Z,16.02
2022-10-21T06:09:34.425Z,15.96
2022-10-21T06:12:07.761Z,15.98
2022-10-21T06:14:40.678Z,15.94
2022-10-21T06:17:13.312Z,15.95
2022-10-21T06:19:48.805Z,15.99
2022-10-21T06:22:23.746Z,15.98
2022-10-21T06:24:58.042Z,16.06
2022-10-21T06:27:30.803Z,16.03
2022-10-21T06:30:04.075Z,16.13
2022-10-21T06:32:36.909Z,15.97
2022-10-21T06:35:10.007Z,15.93
2022-10-21T06:37:42.870Z,15.98
2022-10-21T06:40:17.380Z,15.98
2022-10-21T06:42:51.201Z,15.94
2022-10-21T06:45:24.134Z,15.89
2022-10-21T06:47:56.934Z,15.91
2022-10-21T06:50:29.742Z,15.83
2022-10-21T06:53:02.543Z,15.86
2022-10-21T06:55:39.205Z,15.90
2022-10-21T06:58:23.030Z,15.89
2022-10-21T07:00:55.808Z,15.84
2022-10-21T07:03:28.638Z,15.83
2022-10-21T07:06:02.007Z,15.90
2022-10-21T07:08:46.459Z,15.93
2022-10-21T07:11:21.355Z,15.87
2022-10-21T07:13:54.286Z,16.00
2022-10-21T07:16:29.092Z,15.94
2022-10-21T07:19:01.985Z,15.91
2022-10-21T07:21:35.064Z,15.93
2022-10-21T07:24:07.688Z,15.92
2022-10-21T07:26:41.881Z,15.99
2022-10-21T07:29:14.890Z,15.97
2022-10-21T07:31:47.659Z,16.08
2022-10-21T07:34:21.018Z,16.09
2022-10-21T07:36:54.396Z,16.07
2022-10-21T07:39:28.460Z,16.06
2022-10-21T07:42:03.075Z,16.04
2022-10-21T07:44:35.967Z,16.03
2022-10-21T07:47:08.727Z,16.13
2022-10-21T07:49:41.486Z,16.08
2022-10-21T07:54:47.999Z,16.11
2022-10-21T07:57:22.229Z,16.11
2022-10-21T07:59:55.037Z,16.17
2022-10-21T08:02:27.839Z,16.18
2022-10-21T08:05:00.824Z,16.26
2022-10-21T08:07:35.073Z,16.29
2022-10-21T08:10:10.959Z,16.26
2022-10-21T08:12:45.163Z,16.33
2022-10-21T08:15:18.040Z,16.37
2022-10-21T08:17:50.854Z,16.38
2022-10-21T08:20:23.761Z,16.39
2022-10-21T08:22:56.536Z,16.43
2022-10-21T08:25:30.493Z,16.48
2022-10-21T08:28:06.370Z,16.50
2022-10-21T08:30:39.203Z,16.52
2022-10-21T08:33:15.096Z,16.50
2022-10-21T08:35:47.956Z,16.52
2022-10-21T08:38:21.326Z,16.61
2022-10-21T08:40:55.799Z,16.67
2022-10-21T08:43:33.874Z,16.72
2022-10-21T08:46:09.756Z,16.74
2022-10-21T08:48:48.275Z,16.75
2022-10-21T08:51:28.065Z,16.85
2022-10-21T08:54:06.137Z,16.89
2022-10-21T08:56:39.178Z,16.94
2022-10-21T08:59:21.965Z,16.94
2022-10-21T09:02:02.371Z,16.99
2022-10-21T09:04:45.093Z,17.00
2022-10-21T09:07:27.270Z,17.10
2022-10-21T09:10:04.207Z,17.09
2022-10-21T09:12:45.173Z,17.17
2022-10-21T09:15:29.982Z,17.25
2022-10-21T09:18:20.819Z,17.30
2022-10-21T09:21:05.488Z,17.35
2022-10-21T09:23:50.028Z,17.40
2022-10-21T09:26:33.837Z,17.54
2022-10-21T09:29:22.372Z,17.64
2022-10-21T09:32:02.620Z,17.70
2022-10-21T09:34:44.759Z,17.79
2022-10-21T09:37:31.751Z,17.83
2022-10-21T09:40:16.410Z,17.87
2022-10-21T09:42:51.539Z,17.97
2022-10-21T09:45:30.217Z,17.89
2022-10-21T09:48:07.476Z,17.99
2022-10-21T09:50:40.850Z,18.07
2022-10-21T09:53:21.417Z,18.13
2022-10-21T09:56:01.853Z,18.20
2022-10-21T09:58:46.605Z,18.21
2022-10-21T10:01:21.675Z,18.20
2022-10-21T10:03:56.152Z,18.25
2022-10-21T10:06:33.769Z,18.28
2022-10-21T10:09:13.930Z,18.32
2022-10-21T10:11:53.588Z,18.44
2022-10-21T10:14:34.714Z,18.59
2022-10-21T10:17:29.923Z,18.68
2022-10-21T10:20:17.202Z,18.86
2022-10-21T10:23:09.275Z,19.02
2022-10-21T10:25:42.069Z,19.04
2022-10-21T10:28:20.774Z,19.11
2022-10-21T10:31:06.540Z,19.16
2022-10-21T10:33:39.551Z,19.16
2022-10-21T10:36:26.486Z,19.25
2022-10-21T10:39:02.044Z,19.29
2022-10-21T10:41:40.594Z,19.33
2022-10-21T10:44:27.019Z,19.25
2022-10-21T10:47:03.628Z,19.20
2022-10-21T10:49:40.261Z,19.34
2022-10-21T10:52:22.623Z,19.39
2022-10-21T10:55:15.897Z,19.46
2022-10-21T10:58:10.417Z,19.47
2022-10-21T11:00:47.826Z,19.54
2022-10-21T11:03:27.181Z,19.49
2022-10-21T11:06:11.997Z,19.42
2022-10-21T11:08:51.455Z,19.52
2022-10-21T11:11:27.650Z,19.59
2022-10-21T11:16:59.385Z,19.85
2022-10-21T11:19:47.791Z,20.01
2022-10-21T11:22:33.523Z,20.20
2022-10-21T11:25:20.774Z,20.25
2022-10-21T11:28:05.348Z,20.40
2022-10-21T11:30:59.639Z,20.47
2022-10-21T11:33:45.092Z,20.51
2022-10-21T11:36:28.146Z,20.58
2022-10-21T11:39:36.264Z,20.54
2022-10-21T11:42:19.804Z,20.58
2022-10-21T11:45:07.103Z,20.57
2022-10-21T11:47:48.323Z,20.62
2022-10-21T11:50:30.412Z,20.68
2022-10-21T11:53:19.863Z,20.67
2022-10-21T11:56:03.337Z,20.64
2022-10-21T11:58:50.604Z,20.68
2022-10-21T12:01:37.686Z,20.68
2022-10-21T12:04:33.229Z,20.68
2022-10-21T12:07:42.683Z,20.73
2022-10-21T12:10:26.494Z,20.73
2022-10-21T12:13:03.634Z,20.75
2022-10-21T12:15:42.319Z,20.82
2022-10-21T12:18:17.837Z,20.74
2022-10-21T12:20:56.692Z,20.77
2022-10-21T12:23:32.510Z,20.82
2022-10-21T12:26:17.770Z,20.92
2022-10-21T12:28:58.453Z,20.97
2022-10-21T12:31:40.970Z,21.09
2022-10-21T12:34:15.297Z,21.21
2022-10-21T12:36:50.629Z,21.18
2022-10-21T12:39:49.433Z,21.40
2022-10-21T12:42:29.319Z,21.51
2022-10-21T12:45:02.219Z,21.64
2022-10-21T12:47:44.404Z,21.74
2022-10-21T12:50:26.178Z,21.80
2022-10-21T12:53:13.085Z,21.84
2022-10-21T12:55:51.292Z,21.72
2022-10-21T12:58:35.795Z,21.71
2022-10-21T13:01:37.826Z,21.74
2022-10-21T13:04:48.264Z,21.71
2022-10-21T13:07:36.506Z,21.76
2022-10-21T13:10:26.626Z,21.68
2022-10-21T13:13:31.975Z,21.65
2022-10-21T13:16:35.341Z,21.51
2022-10-21T13:19:34.222Z,21.46
2022-10-21T13:22:14.032Z,21.41
2022-10-21T13:24:47.671Z,21.33
2022-10-21T13:27:29.696Z,21.17
2022-10-21T13:30:03.098Z,21.23
2022-10-21T13:32:37.669Z,21.13
2022-10-21T13:35:31.880Z,21.11
2022-10-21T13:38:18.737Z,21.02
2022-10-21T13:40:54.293Z,20.94
2022-10-21T13:43:30.541Z,20.91
2022-10-21T13:46:06.876Z,20.86
2022-10-21T13:48:46.255Z,20.77
2022-10-21T13:51:22.792Z,20.75
2022-10-21T13:57:19.022Z,20.48
2022-10-21T14:00:01.072Z,20.49
2022-10-21T14:02:33.914Z,20.46
2022-10-21T14:05:06.989Z,20.44
2022-10-21T14:07:42.013Z,20.50
2022-10-21T14:10:16.557Z,20.46
2022-10-21T14:12:50.734Z,20.37
2022-10-21T14:15:29.472Z,20.37
2022-10-21T14:18:14.496Z,20.35
2022-10-21T14:20:50.240Z,20.30
2022-10-21T14:23:25.178Z,20.33
2022-10-21T14:26:09.212Z,20.28
2022-10-21T14:28:50.539Z,20.25
2022-10-21T14:31:23.479Z,20.26
2022-10-21T14:33:56.388Z,20.21
2022-10-21T14:36:32.028Z,20.13
2022-10-21T14:39:21.988Z,20.12
2022-10-21T14:41:56.536Z,20.09
2022-10-21T14:44:32.547Z,20.06
2022-10-21T14:47:05.379Z,20.10
2022-10-21T14:49:46.850Z,20.05
2022-10-21T14:52:22.751Z,20.11
2022-10-21T14:54:59.884Z,20.03
2022-10-21T14:57:41.791Z,20.02
2022-10-21T15:00:28.914Z,20.01
2022-10-21T15:03:03.498Z,19.98
2022-10-21T15:05:39.502Z,19.88
2022-10-21T15:08:17.322Z,19.96
2022-10-21T15:11:23.495Z,19.98
2022-10-21T15:14:11.229Z,19.91
2022-10-21T15:16:49.059Z,19.94
2022-10-21T15:19:25.352Z,19.91
2022-10-21T15:22:01.258Z,19.82
2022-10-21T15:24:42.862Z,19.83
2022-10-21T15:27:19.976Z,19.82
2022-10-21T15:29:53.737Z,19.84
2022-10-21T15:32:30.318Z,19.80
2022-10-21T15:35:07.913Z,19.72
2022-10-21T15:37:44.826Z,19.70
2022-10-21T15:40:18.135Z,19.70
2022-10-21T15:42:56.922Z,19.69
2022-10-21T15:45:30.314Z,19.72
2022-10-21T15:48:03.469Z,19.71
2022-10-21T15:50:46.338Z,19.68
2022-10-21T15:53:24.631Z,19.68
2022-10-21T15:56:01.447Z,19.60
2022-10-21T15:58:40.150Z,19.72
2022-10-21T16:01:19.901Z,19.62
2022-10-21T16:03:54.852Z,19.66
2022-10-21T16:06:28.050Z,19.55
2022-10-21T16:09:01.065Z,19.50
2022-10-21T16:11:40.646Z,19.56
2022-10-21T16:14:24.583Z,19.50
2022-10-21T16:16:59.657Z,19.55
2022-10-21T16:20:01.927Z,19.54
2022-10-21T16:22:44.898Z,19.54
2022-10-21T16:25:27.839Z,19.48
2022-10-21T16:28:01.445Z,19.42
2022-10-21T16:30:36.396Z,19.37
2022-10-21T16:33:11.169Z,19.29
2022-10-21T16:35:48.524Z,19.29
2022-10-21T16:38:24.150Z,19.31
2022-10-21T16:40:57.247Z,19.30
2022-10-21T16:43:30.443Z,19.28
2022-10-21T16:46:03.812Z,19.25
2022-10-21T16:48:37.234Z,19.18
2022-10-21T16:51:27.553Z,19.16
2022-10-21T16:54:48.613Z,19.13
2022-10-21T16:57:22.134Z,19.16
2022-10-21T16:59:56.857Z,19.13
2022-10-21T17:02:30.037Z,19.15
2022-10-21T17:05:02.755Z,19.11
2022-10-21T17:07:35.615Z,19.05
2022-10-21T17:10:14.264Z,19.02
2022-10-21T17:12:47.404Z,19.07
2022-10-21T17:15:20.487Z,19.12
2022-10-21T17:17:59.148Z,19.01
2022-10-21T17:20:58.919Z,19.02
2022-10-21T17:23:34.938Z,19.00
2022-10-21T17:26:08.988Z,19.08
2022-10-21T17:28:41.911Z,18.92
2022-10-21T17:31:19.368Z,18.99
2022-10-21T17:34:02.291Z,18.93
2022-10-21T17:36:47.789Z,19.00
2022-10-21T17:39:20.811Z,19.00
2022-10-21T17:41:56.347Z,18.90
2022-10-21T17:44:30.960Z,18.86
2022-10-21T17:47:08.955Z,18.87
2022-10-21T17:50:32.495Z,18.82
2022-10-21T17:53:08.256Z,18.76
2022-10-21T17:55:41.669Z,18.85
2022-10-21T17:58:16.925Z,18.80
2022-10-21T18:00:50.324Z,18.86
2022-10-21T18:03:25.529Z,18.86
2022-10-21T18:06:01.400Z,18.75
2022-10-21T18:08:36.984Z,18.76
2022-10-21T18:11:13.762Z,18.73
2022-10-21T18:13:53.437Z,18.66
2022-10-21T18:16:36.693Z,18.67
2022-10-21T18:19:14.268Z,18.57
2022-10-21T18:21:50.138Z,18.60
2022-10-21T18:24:24.064Z,18.55
2022-10-21T18:26:57.414Z,18.55
2022-10-21T18:29:31.862Z,18.49
2022-10-21T18:32:05.276Z,18.55
2022-10-21T18:34:38.149Z,18.63
2022-10-21T18:37:13.555Z,18.67
2022-10-21T18:39:46.524Z,18.60
2022-10-21T18:42:20.047Z,18.49
2022-10-21T18:44:54.398Z,18.49
2022-10-21T18:47:28.118Z,18.40
2022-10-21T18:50:02.773Z,18.39
2022-10-21T18:52:35.722Z,18.47
2022-10-21T18:55:14.829Z,18.35
2022-10-21T18:57:47.756Z,18.37
2022-10-21T19:00:22.421Z,18.40
2022-10-21T19:02:55.425Z,18.45
2022-10-21T19:05:34.440Z,18.32
2022-10-21T19:08:07.361Z,18.39
2022-10-21T19:10:47.547Z,18.36
2022-10-21T19:13:20.629Z,18.43
2022-10-21T19:15:54.948Z,18.30
2022-10-21T19:18:30.643Z,18.31
2022-10-21T19:21:03.706Z,18.31
2022-10-21T19:23:36.913Z,18.16
2022-10-21T19:26:10.744Z,18.19
2022-10-21T19:28:43.943Z,18.09
2022-10-21T19:31:21.035Z,18.19
2022-10-21T19:33:54.008Z,18.13
2022-10-21T19:36:27.573Z,18.11
2022-10-21T19:39:00.520Z,18.13
2022-10-21T19:41:33.597Z,18.10
2022-10-21T19:44:07.239Z,18.12
2022-10-21T19:46:41.600Z,18.04
2022-10-21T19:49:15.486Z,18.11
2022-10-21T19:51:48.495Z,18.09
2022-10-21T19:54:21.279Z,18.03
2022-10-21T19:56:54.311Z,17.97
2022-10-21T19:59:26.923Z,17.99
2022-10-21T20:02:01.265Z,17.90
2022-10-21T20:04:35.426Z,17.88
2022-10-21T20:07:09.133Z,17.98
2022-10-21T20:09:42.003Z,17.81
2022-10-21T20:12:15.019Z,17.93
2022-10-21T20:14:47.714Z,17.86
2022-10-21T20:17:22.702Z,17.90
2022-10-21T20:19:55.500Z,17.88
2022-10-21T20:22:28.554Z,17.89
2022-10-21T20:25:01.198Z,17.82
2022-10-21T20:27:34.107Z,17.85
2022-10-21T20:30:08.374Z,17.72
2022-10-21T20:32:43.161Z,17.81
2022-10-21T20:35:16.037Z,17.75
2022-10-21T20:37:48.767Z,17.73
2022-10-21T20:40:21.674Z,17.76
2022-10-21T20:42:54.384Z,17.84
2022-10-21T20:45:27.339Z,17.82
2022-10-21T20:48:05.142Z,17.80
2022-10-21T20:50:37.961Z,17.78
2022-10-21T20:53:10.903Z,17.74
2022-10-21T20:55:45.051Z,17.74
2022-10-21T20:58:17.816Z,17.74
2022-10-21T21:00:50.829Z,17.72
2022-10-21T21:03:24.797Z,17.74
2022-10-21T21:06:01.517Z,17.73
2022-10-21T21:08:35.796Z,17.73
2022-10-21T21:11:11.286Z,17.76
2022-10-21T21:13:45.515Z,17.73
2022-10-21T21:16:20.067Z,17.68
2022-10-21T21:18:56.979Z,17.67
2022-10-21T21:21:30.845Z,17.66
2022-10-21T21:24:03.870Z,17.66
2022-10-21T21:26:37.258Z,17.62
2022-10-21T21:29:11.473Z,17.69
2022-10-21T21:31:44.898Z,17.68
2022-10-21T21:34:23.217Z,17.67
2022-10-21T21:36:55.972Z,17.63
2022-10-21T21:39:28.846Z,17.66
2022-10-21T21:42:06.078Z,17.66
2022-10-21T21:44:39.007Z,17.63
2022-10-21T21:47:11.759Z,17.62
2022-10-21T21:49:45.814Z,17.60
2022-10-21T21:52:18.474Z,17.59
2022-10-21T21:54:54.431Z,17.64
2022-10-21T21:57:28.260Z,17.61
2022-10-21T22:00:01.513Z,17.55
2022-10-21T22:02:38.914Z,17.52
2022-10-21T22:05:13.192Z,17.50
2022-10-21T22:07:45.998Z,17.52
2022-10-21T22:10:18.984Z,17.65
2022-10-21T22:12:51.689Z,17.58
2022-10-21T22:18:17.833Z,17.59
2022-10-21T22:20:52.013Z,17.57
2022-10-21T22:23:24.713Z,17.56
2022-10-21T22:25:58.923Z,17.52
2022-10-21T22:28:32.109Z,17.57
2022-10-21T22:31:07.599Z,17.54
2022-10-21T22:33:41.205Z,17.45
2022-10-21T22:36:16.804Z,17.52
2022-10-21T22:38:49.592Z,17.51
2022-10-21T22:41:22.970Z,17.46
2022-10-21T22:43:55.838Z,17.50
2022-10-21T22:46:34.178Z,17.45
2022-10-21T22:49:07.743Z,17.43
2022-10-21T22:51:42.205Z,17.45
2022-10-21T22:54:35.941Z,17.51
2022-10-21T22:57:08.005Z,17.49
2022-10-21T22:59:40.885Z,17.44
2022-10-21T23:02:13.656Z,17.46
2022-10-21T23:04:46.471Z,17.52
2022-10-21T23:07:20.691Z,17.47
2022-10-21T23:09:53.866Z,17.52
2022-10-21T23:12:26.888Z,17.48
2022-10-21T23:14:59.585Z,17.42
2022-10-21T23:17:32.639Z,17.45
2022-10-21T23:20:05.567Z,17.43
2022-10-21T23:22:39.882Z,17.45
2022-10-21T23:25:12.770Z,17.44
2022-10-21T23:27:45.552Z,17.46
2022-10-21T23:30:18.594Z,17.47
2022-10-21T23:32:54.200Z,17.37
2022-10-21T23:35:27.318Z,17.38
2022-10-21T23:38:02.252Z,17.33
2022-10-21T23:40:35.602Z,17.40
2022-10-21T23:43:08.393Z,17.37
2022-10-21T23:45:41.314Z,17.26
2022-10-21T23:48:14.054Z,17.37
2022-10-21T23:50:46.769Z,17.31
2022-10-21T23:53:20.881Z,17.27
2022-10-21T23:55:53.643Z,17.22
2022-10-21T23:58:26.455Z,17.25
